Current Conditions
Voornamelijk Bewolkt




Pressure
1021.92 (mb) - 30.18 (inHG)
Visibility

10.0 (km) - 6.2 (miles)
   Temperature
9  °C
48°F
5  °C
Dewpoint
76  %
 Humidity
   Wind Speed
37  km/h
20  kts
23  mph
10.3  m/s
   Wind Direction
 230°
South West
   Airport Data
EHAM
Location Amsterdam Schiphol 80 km (49.72 mi)
Metar :EHAM 211725Z 23020KT 9999 BKN018 BKN033 09/05 Q1022 NOSIG
Fri 21st February 18:25 pm
   Raw Metar Info
Raw METAR is the most common format in the world for the transmission of observational weather data. It is highly standardized through the International Civil Aviation Organization (ICAO), which allows it to be understood throughout most of the world.
   API Info
Data Provided by
https://www.checkwx.com/weather/EHAM
   © Info
CSS/SVG/PHP scripts were developed by weather34.com for use in the weather34 template © 2015-2020

Guide Info provided by Metar-Wikipedia